Time;durP1;ratioP1;P1;durP2;ratioP2;P2;SDS_P1;SDS_P2;PMS_P1;PMS_P2;Temp;Humidity;BMP_temperature;BMP_pressure;BME280_temperature;BME280_humidity;BME280_pressure;Samples;Min_cycle;Max_cycle;Signal;HPM_P1;HPM_P2
2022/06/02 00:01:40;;;;;;;10.85;8.90;;;;;;;9.70;77.27;101867.03;5063887;28;20034;-76
2022/06/02 00:04:19;;;;;;;10.63;8.82;;;;;;;9.64;77.39;101864.47;5066324;28;20134;-76
2022/06/02 00:07:03;;;;;;;10.93;9.43;;;;;;;9.58;77.48;101859.25;5059998;28;20049;-75
2022/06/02 00:10:25;;;;;;;10.15;9.05;;;;;;;9.50;77.56;101864.63;5053542;28;20076;-75
2022/06/02 00:13:11;;;;;;;9.95;8.35;;;;;;;9.41;77.48;101869.97;5037878;28;20136;-78
2022/06/02 00:15:52;;;;;;;9.68;8.40;;;;;;;9.31;77.68;101869.16;5051647;28;20045;-77
2022/06/02 00:18:48;;;;;;;13.48;9.07;;;;;;;9.25;77.46;101874.50;5046961;28;20500;-78
2022/06/02 00:21:38;;;;;;;11.48;9.07;;;;;;;9.17;77.83;101874.53;5043523;28;20059;-77
2022/06/02 00:24:37;;;;;;;11.00;9.02;;;;;;;9.10;77.73;101867.59;5036423;28;20441;-76
2022/06/02 00:27:39;;;;;;;11.07;9.18;;;;;;;9.07;78.13;101878.13;5044711;28;20392;-76
2022/06/02 00:30:28;;;;;;;12.02;9.65;;;;;;;9.09;78.66;101879.00;5049636;28;20037;-77
2022/06/02 00:33:31;;;;;;;14.70;10.32;;;;;;;9.14;79.36;101883.34;5047811;28;20108;-77
2022/06/02 00:36:08;;;;;;;12.55;10.10;;;;;;;9.17;80.18;101880.66;5051154;28;20076;-77
2022/06/02 00:38:39;;;;;;;13.00;10.10;;;;;;;9.17;79.79;101885.06;5046729;28;20049;-75
2022/06/02 00:41:36;;;;;;;12.48;10.70;;;;;;;9.20;79.68;101885.06;5051653;28;20121;-75
2022/06/02 00:44:32;;;;;;;13.43;10.13;;;;;;;9.16;79.87;101886.81;5036923;28;20042;-75
2022/06/02 00:47:28;;;;;;;12.30;10.27;;;;;;;9.15;79.52;101881.56;5032930;28;20052;-77
2022/06/02 00:50:01;;;;;;;14.93;11.07;;;;;;;9.16;79.63;101888.59;5032029;28;20107;-74
2022/06/02 00:52:58;;;;;;;13.13;10.65;;;;;;;9.15;79.75;101890.34;5033945;28;20783;-77
2022/06/02 00:59:10;;;;;;;13.60;11.40;;;;;;;9.11;79.88;101901.78;5044105;28;20052;-76
2022/06/02 01:01:37;;;;;;;14.30;11.32;;;;;;;9.09;79.75;101893.00;5035745;28;20037;-74
2022/06/02 01:04:19;;;;;;;15.52;11.98;;;;;;;9.07;79.83;101899.16;5047840;28;20037;-74
2022/06/02 01:06:59;;;;;;;15.25;12.10;;;;;;;9.02;79.91;101897.44;5047772;28;20049;-70
2022/06/02 01:09:35;;;;;;;15.60;12.10;;;;;;;8.97;79.99;101891.34;5037073;28;20121;-71
2022/06/02 01:12:22;;;;;;;14.52;11.45;;;;;;;8.94;79.88;101898.38;5049068;28;20461;-75
2022/06/02 01:15:11;;;;;;;12.85;11.23;;;;;;;8.88;79.94;101899.31;5041463;28;20500;-74
2022/06/02 01:17:52;;;;;;;15.60;12.02;;;;;;;8.82;80.01;101896.69;5040047;28;20041;-75
2022/06/02 01:20:36;;;;;;;16.23;12.18;;;;;;;8.78;80.50;101893.22;5036819;28;20069;-74
2022/06/02 01:23:18;;;;;;;16.17;12.20;;;;;;;8.80;80.71;101895.84;5031790;28;20046;-75
2022/06/02 01:26:20;;;;;;;20.58;13.45;;;;;;;8.78;80.96;101897.63;5041221;28;20128;-76
2022/06/02 01:29:15;;;;;;;16.20;13.15;;;;;;;8.77;81.03;101898.50;5041253;28;20141;-71
2022/06/02 01:32:09;;;;;;;18.15;13.07;;;;;;;8.75;81.13;101900.25;5031756;28;20046;-69
2022/06/02 01:35:45;;;;;;;15.18;12.18;;;;;;;8.69;80.74;101898.53;5034645;28;20084;-70
2022/06/02 01:38:29;;;;;;;15.43;12.73;;;;;;;8.62;80.83;101887.16;5029818;28;20547;-75
2022/06/02 01:41:09;;;;;;;15.02;12.70;;;;;;;8.60;81.13;101901.22;5032283;28;20518;-75
2022/06/02 01:44:16;;;;;;;15.70;12.65;;;;;;;8.56;81.10;101887.22;5031102;28;20145;-76
2022/06/02 01:47:17;;;;;;;18.02;13.05;;;;;;;8.53;80.91;101898.63;5031391;28;20048;-75
2022/06/02 01:50:36;;;;;;;20.73;14.30;;;;;;;8.50;81.15;101898.63;5049705;28;20041;-75
2022/06/02 01:53:34;;;;;;;19.55;14.45;;;;;;;8.49;81.37;101901.28;5043381;28;20044;-75
2022/06/02 01:56:44;;;;;;;21.27;14.10;;;;;;;8.47;81.56;101895.09;5031583;28;20872;-75
2022/06/02 01:59:39;;;;;;;19.90;14.85;;;;;;;8.44;81.74;101895.13;5034763;28;20042;-75
2022/06/02 02:03:07;;;;;;;17.80;14.15;;;;;;;8.39;81.39;101888.09;5032140;28;20536;-77
2022/06/02 02:05:47;;;;;;;17.67;13.27;;;;;;;8.34;81.37;101889.03;5049988;28;20049;-76
2022/06/02 02:08:25;;;;;;;16.08;13.23;;;;;;;8.29;81.76;101894.28;5047946;28;20046;-77
2022/06/02 02:11:04;;;;;;;20.27;13.60;;;;;;;8.23;81.52;101892.59;5047160;28;20401;-75
2022/06/02 02:13:55;;;;;;;20.20;13.48;;;;;;;8.18;81.66;101885.59;5041223;28;20050;-75
2022/06/02 02:16:35;;;;;;;14.65;12.20;;;;;;;8.11;81.72;101883.84;5050686;28;20044;-76
2022/06/02 02:19:08;;;;;;;16.90;13.73;;;;;;;8.03;81.54;101884.75;5051394;28;20063;-76
2022/06/02 02:21:57;;;;;;;16.83;13.13;;;;;;;7.97;81.40;101887.41;5045216;28;20045;-77
2022/06/02 02:25:01;;;;;;;17.80;13.18;;;;;;;7.90;81.48;101894.44;5047430;28;20056;-79
2022/06/02 02:28:04;;;;;;;18.52;13.77;;;;;;;7.82;81.67;101887.44;5036207;28;20820;-77
2022/06/02 02:30:46;;;;;;;21.42;14.68;;;;;;;7.74;81.73;101890.97;5043504;28;20121;-78
2022/06/02 02:33:38;;;;;;;19.73;15.00;;;;;;;7.71;81.84;101893.56;5034502;28;20045;-76
2022/06/02 02:36:39;;;;;;;19.88;15.48;;;;;;;7.69;81.92;101892.69;5034989;28;20046;-76
2022/06/02 02:39:26;;;;;;;20.65;15.70;;;;;;;7.66;81.96;101892.72;5042181;28;20045;-76
2022/06/02 02:42:01;;;;;;;22.05;15.00;;;;;;;7.60;81.91;101890.97;5054810;28;20084;-76
2022/06/02 02:45:01;;;;;;;19.83;14.73;;;;;;;7.58;82.09;101897.13;5032734;28;20049;-76
2022/06/02 02:47:48;;;;;;;20.88;15.65;;;;;;;7.56;82.13;101898.84;5040470;28;20791;-76
2022/06/02 02:50:37;;;;;;;18.48;14.93;;;;;;;7.53;82.31;101897.09;5040745;28;20049;-79
2022/06/02 02:53:34;;;;;;;19.48;15.75;;;;;;;7.52;82.42;101904.97;5047375;28;20042;-78
2022/06/02 02:56:46;;;;;;;21.27;15.27;;;;;;;7.49;82.29;101903.22;5068304;28;20543;-75
2022/06/02 02:59:48;;;;;;;21.23;15.20;;;;;;;7.47;82.59;101904.97;5034504;28;20128;-70
2022/06/02 03:02:30;;;;;;;19.25;15.10;;;;;;;7.42;82.38;101901.50;5042943;28;20507;-77
2022/06/02 03:05:14;;;;;;;19.60;15.32;;;;;;;7.40;82.76;101908.47;5046116;28;20468;-77
2022/06/02 03:07:41;;;;;;;20.27;14.88;;;;;;;7.36;82.30;101918.09;5045051;28;20038;-77
2022/06/02 03:10:21;;;;;;;19.02;14.55;;;;;;;7.33;82.22;101922.44;5034540;28;20054;-76
2022/06/02 03:13:27;;;;;;;18.00;13.43;;;;;;;7.28;82.28;101919.81;5045176;28;20079;-76
2022/06/02 03:16:08;;;;;;;21.23;14.52;;;;;;;7.22;82.24;101931.22;5055270;28;20072;-77
2022/06/02 03:19:12;;;;;;;22.85;14.82;;;;;;;7.18;82.35;101934.69;5048774;28;20487;-76
2022/06/02 03:21:51;;;;;;;19.27;15.50;;;;;;;7.14;82.39;101935.56;5032202;28;20125;-76
2022/06/02 03:25:09;;;;;;;22.33;15.20;;;;;;;7.15;82.23;101932.06;5041401;28;20038;-80
2022/06/02 03:28:19;;;;;;;21.48;15.55;;;;;;;7.17;82.18;101935.56;5049437;28;20057;-81
2022/06/02 03:31:13;;;;;;;23.05;16.65;;;;;;;7.19;82.30;101946.94;5035690;28;20424;-80
2022/06/02 03:34:08;;;;;;;23.13;16.83;;;;;;;7.22;82.53;101946.94;5050967;28;20168;-77
2022/06/02 03:37:06;;;;;;;24.60;16.70;;;;;;;7.27;82.46;101950.44;5034721;28;20074;-75
2022/06/02 03:40:17;;;;;;;22.73;16.55;;;;;;;7.34;82.60;101951.31;5034185;28;20046;-75
2022/06/02 03:42:44;;;;;;;23.65;17.35;;;;;;;7.42;82.81;101959.22;5036820;28;20049;-72
2022/06/02 03:45:31;;;;;;;28.48;20.05;;;;;;;7.57;82.80;101955.72;5041631;28;20053;-74
2022/06/02 03:48:27;;;;;;;25.60;19.33;;;;;;;7.67;82.73;101957.47;5031803;28;20062;-73
2022/06/02 03:51:14;;;;;;;29.40;21.50;;;;;;;7.74;83.35;101964.47;5038220;28;20048;-73
2022/06/02 03:54:19;;;;;;;27.45;20.60;;;;;;;7.81;83.47;101962.72;5032326;28;20135;-74
2022/06/02 03:57:03;;;;;;;34.88;21.77;;;;;;;7.91;83.71;101967.06;5034759;28;20139;-73
2022/06/02 03:59:45;;;;;;;26.38;19.35;;;;;;;8.00;83.54;101976.66;5045995;28;20124;-73
2022/06/02 04:02:26;;;;;;;30.90;21.45;;;;;;;8.09;83.66;101979.28;5049195;28;20116;-73
2022/06/02 04:05:36;;;;;;;29.90;21.52;;;;;;;8.17;83.66;101976.66;5032426;28;20538;-72
2022/06/02 04:08:16;;;;;;;27.45;20.27;;;;;;;8.24;83.77;101974.88;5032799;28;20038;-77
2022/06/02 04:11:25;;;;;;;32.10;21.80;;;;;;;8.33;83.68;101974.84;5044209;28;20061;-77
2022/06/02 04:14:23;;;;;;;34.53;21.25;;;;;;;8.42;83.39;101979.22;5040103;28;20041;-78
2022/06/02 04:17:31;;;;;;;38.58;23.23;;;;;;;8.51;83.24;101975.69;5038025;28;20727;-77
2022/06/02 04:20:36;;;;;;;35.50;24.17;;;;;;;8.61;83.25;101976.56;5031863;28;20053;-76
2022/06/02 04:24:00;;;;;;;38.92;24.05;;;;;;;8.70;82.92;101984.41;5034731;28;20113;-78
2022/06/02 04:26:49;;;;;;;33.22;22.75;;;;;;;8.80;83.15;101987.88;5034220;28;20049;-77
2022/06/02 04:29:59;;;;;;;32.20;23.23;;;;;;;8.85;82.99;101980.84;5042355;28;20033;-77
2022/06/02 04:32:35;;;;;;;31.70;24.08;;;;;;;8.93;82.85;101986.91;5044682;28;20045;-74
2022/06/02 04:35:30;;;;;;;39.78;25.98;;;;;;;9.01;82.74;101984.25;5049594;28;20574;-73
2022/06/02 04:38:33;;;;;;;41.00;26.20;;;;;;;9.11;82.53;101992.94;5046200;28;20053;-74
2022/06/02 04:41:44;;;;;;;40.22;25.42;;;;;;;9.29;82.49;101994.59;5047006;28;20068;-74
2022/06/02 04:44:56;;;;;;;39.72;24.85;;;;;;;9.38;82.58;101999.81;5045140;28;20093;-68
2022/06/02 04:47:32;;;;;;;36.35;25.60;;;;;;;9.52;82.39;101998.84;5034722;28;20745;-75
2022/06/02 04:50:38;;;;;;;35.83;25.75;;;;;;;9.71;81.97;102003.09;5045191;28;20045;-76
2022/06/02 04:53:56;;;;;;;37.97;26.67;;;;;;;9.79;81.65;102006.53;5042922;28;20042;-75
2022/06/02 04:56:36;;;;;;;34.92;24.88;;;;;;;9.88;81.42;102009.94;5040317;28;20037;-75
2022/06/02 04:59:31;;;;;;;34.30;25.40;;;;;;;9.94;81.33;102009.91;5038618;28;20116;-75
2022/06/02 05:02:22;;;;;;;45.30;27.33;;;;;;;10.10;81.12;102016.78;5045556;28;20041;-75
2022/06/02 05:05:15;;;;;;;34.58;25.98;;;;;;;10.24;80.47;102021.06;5032435;28;20050;-75
2022/06/02 05:08:02;;;;;;;35.63;25.42;;;;;;;10.33;79.90;102020.06;5034673;28;20049;-75
2022/06/02 05:10:54;;;;;;;31.40;25.75;;;;;;;10.44;79.38;102018.22;5041393;28;20574;-76
2022/06/02 05:14:02;;;;;;;34.15;24.92;;;;;;;11.36;77.21;102017.06;5047986;28;20057;-76
2022/06/02 05:16:53;;;;;;;32.97;25.30;;;;;;;11.78;74.71;102018.16;5048583;28;20042;-76
2022/06/02 05:20:06;;;;;;;32.88;24.70;;;;;;;12.19;74.17;102026.31;5041045;28;20844;-72
2022/06/02 05:23:21;;;;;;;27.33;22.40;;;;;;;13.12;71.64;102020.94;5041645;28;20041;-74
2022/06/02 05:26:06;;;;;;;;;;;;;;;15.19;64.65;102012.00;5045563;28;20508;-73
2022/06/02 05:29:09;;;;;;;23.33;19.60;;;;;;;17.50;59.51;102014.47;5046860;28;19983;-74
2022/06/02 05:32:06;;;;;;;22.55;20.17;;;;;;;19.29;54.41;102013.72;5043514;28;20048;-75
2022/06/02 05:35:01;;;;;;;25.25;17.58;;;;;;;20.61;50.74;102007.03;5044067;28;20551;-76
2022/06/02 05:37:51;;;;;;;;;;;;;;;21.68;47.57;102017.16;5046285;28;20046;-75
2022/06/02 05:40:38;;;;;;;26.02;17.20;;;;;;;22.70;44.46;102012.84;5045890;28;19936;-75
2022/06/02 05:43:53;;;;;;;21.10;15.85;;;;;;;23.45;42.16;102000.88;5050042;28;20064;-75
2022/06/02 05:47:06;;;;;;;;;;;;;;;24.35;40.47;101999.19;5035953;28;20050;-76
2022/06/02 05:49:57;;;;;;;19.88;15.48;;;;;;;25.31;39.06;102007.59;5039127;28;19925;-75
2022/06/02 05:52:39;;;;;;;22.70;14.77;;;;;;;25.98;37.11;102008.88;5042116;28;20037;-75
2022/06/02 05:55:26;;;;;;;17.05;14.00;;;;;;;26.61;36.19;102018.41;5051998;28;20061;-75
2022/06/02 05:58:37;;;;;;;15.80;14.15;;;;;;;27.10;34.37;102014.44;5043197;28;20592;-74
2022/06/02 06:01:36;;;;;;;22.77;13.70;;;;;;;27.44;33.88;102018.91;5050570;28;20042;-75
2022/06/02 06:04:38;;;;;;;36.15;16.05;;;;;;;27.61;33.61;102016.63;5038273;28;20038;-77
2022/06/02 06:07:50;;;;;;;20.73;15.02;;;;;;;27.78;33.25;102021.47;5041011;28;20042;-74
2022/06/02 06:10:34;;;;;;;16.40;13.75;;;;;;;27.87;32.88;102022.53;5037825;28;20048;-76
2022/06/02 06:13:52;;;;;;;17.13;14.63;;;;;;;27.19;33.09;102022.75;5035931;28;20129;-74
2022/06/02 06:16:39;;;;;;;17.27;14.15;;;;;;;24.18;37.63;102019.22;5038173;28;20044;-73
2022/06/02 06:19:39;;;;;;;25.30;16.20;;;;;;;21.53;42.66;102032.31;5046739;28;20088;-74
2022/06/02 06:22:44;;;;;;;19.65;14.50;;;;;;;19.70;46.59;102029.53;5035005;28;20034;-75
2022/06/02 06:25:41;;;;;;;20.35;14.98;;;;;;;18.13;50.21;102035.88;5041198;28;20045;-73
2022/06/02 06:28:19;;;;;;;17.02;15.35;;;;;;;17.14;52.82;102039.88;5035421;28;20077;-73
2022/06/02 06:31:06;;;;;;;22.48;16.10;;;;;;;16.48;54.54;102043.22;5046813;28;20046;-73
2022/06/02 06:33:49;;;;;;;25.02;15.93;;;;;;;15.92;56.75;102055.75;5034232;28;20124;-74
2022/06/02 06:36:57;;;;;;;17.13;12.60;;;;;;;15.45;57.94;102047.53;5034763;28;20045;-73
2022/06/02 06:39:33;;;;;;;15.00;13.45;;;;;;;15.03;59.05;102054.97;5034799;28;20042;-73
2022/06/02 06:42:18;;;;;;;15.07;13.48;;;;;;;14.83;60.21;102055.53;5034784;28;20038;-74
2022/06/02 06:45:04;;;;;;;18.20;14.35;;;;;;;14.63;61.31;102055.22;5034709;28;20050;-73
2022/06/02 06:47:53;;;;;;;14.90;11.05;;;;;;;14.49;61.85;102063.56;5041469;28;20038;-74
2022/06/02 06:50:32;;;;;;;13.93;11.02;;;;;;;14.41;61.98;102069.06;5054879;28;20092;-73
2022/06/02 06:53:12;;;;;;;14.70;11.70;;;;;;;14.40;62.61;102067.31;5054538;28;20514;-73
2022/06/02 06:55:55;;;;;;;15.18;10.55;;;;;;;14.37;62.64;102068.28;5054598;28;20037;-73
2022/06/02 06:58:49;;;;;;;12.32;10.60;;;;;;;14.53;62.53;102078.50;5053324;28;20053;-74
2022/06/02 07:01:28;;;;;;;11.25;10.05;;;;;;;14.69;62.14;102074.53;5048027;28;20038;-73
2022/06/02 07:04:25;;;;;;;11.15;8.70;;;;;;;14.81;61.67;102075.94;5033752;28;20050;-73
2022/06/02 07:07:06;;;;;;;11.52;9.45;;;;;;;14.83;61.88;102081.22;5037535;28;20069;-73
2022/06/02 07:09:41;;;;;;;12.63;9.65;;;;;;;14.88;62.32;102079.31;5040791;28;20045;-73
2022/06/02 07:13:03;;;;;;;21.58;10.95;;;;;;;15.11;62.13;102093.69;5051780;28;20053;-71
2022/06/02 07:15:41;;;;;;;14.93;8.05;;;;;;;15.31;61.16;102090.47;5068414;28;20063;-72
2022/06/02 07:18:42;;;;;;;17.88;13.40;;;;;;;15.48;61.27;102082.84;5071323;28;20037;-74
2022/06/02 07:21:15;;;;;;;35.88;15.00;;;;;;;15.57;61.63;102086.97;5041802;28;20401;-72
2022/06/02 07:24:07;;;;;;;23.30;13.77;;;;;;;15.64;61.60;102096.50;5043478;28;20092;-72
2022/06/02 07:26:40;;;;;;;12.77;11.10;;;;;;;15.77;61.78;102096.97;5051514;28;20496;-74
2022/06/02 07:29:56;;;;;;;15.50;11.30;;;;;;;16.03;61.33;102097.09;5034979;28;20050;-74
2022/06/02 07:32:44;;;;;;;;;;;;;;;16.18;60.44;102096.56;5035676;28;20046;-74
2022/06/02 07:36:00;;;;;;;9.95;8.18;;;;;;;16.42;59.20;102099.28;5034040;28;19960;-74
2022/06/02 07:38:53;;;;;;;10.05;6.95;;;;;;;16.73;58.08;102098.19;5052882;28;20041;-73
2022/06/02 07:41:54;;;;;;;17.33;7.28;;;;;;;17.02;57.14;102099.84;5052083;28;20045;-75
2022/06/02 07:45:03;;;;;;;6.22;5.60;;;;;;;17.20;54.60;102098.25;5033209;28;20750;-67
2022/06/02 07:47:45;;;;;;;11.27;5.97;;;;;;;17.20;54.54;102097.41;5033413;28;20428;-66
2022/06/02 07:50:48;;;;;;;9.57;6.47;;;;;;;17.31;54.17;102097.84;5033668;28;20060;-67
2022/06/02 07:53:37;;;;;;;13.25;9.50;;;;;;;17.25;54.58;102094.56;5045988;28;20041;-67
2022/06/02 07:56:20;;;;;;;15.15;8.55;;;;;;;17.12;55.08;102100.34;5052686;28;20053;-67
2022/06/02 07:59:19;;;;;;;9.05;7.20;;;;;;;17.13;54.58;102095.91;5033542;28;20057;-67
2022/06/02 08:02:03;;;;;;;14.20;8.13;;;;;;;16.97;55.08;102092.94;5031517;28;20062;-67
2022/06/02 08:05:22;;;;;;;13.75;7.72;;;;;;;16.93;55.69;102100.16;5042187;28;20037;-69
2022/06/02 08:07:59;;;;;;;23.80;10.02;;;;;;;16.77;55.82;102099.84;5051511;28;20127;-73
2022/06/02 08:11:16;;;;;;;12.40;8.07;;;;;;;16.69;55.58;102101.88;5045704;28;20081;-73
2022/06/02 08:13:57;;;;;;;9.55;6.95;;;;;;;16.61;55.91;102099.53;5031654;28;20145;-73
2022/06/02 08:16:44;;;;;;;9.77;7.50;;;;;;;16.55;55.39;102103.28;5033275;28;20117;-73
2022/06/02 08:19:57;;;;;;;60.35;12.15;;;;;;;16.59;55.22;102101.38;5033324;28;20038;-73
2022/06/02 08:22:54;;;;;;;11.68;7.57;;;;;;;16.75;54.74;102104.34;5033312;28;20124;-73
2022/06/02 08:25:30;;;;;;;7.07;6.32;;;;;;;16.84;54.09;102109.34;5033151;28;20054;-73
2022/06/02 08:28:40;;;;;;;7.35;5.75;;;;;;;16.93;52.88;102110.81;5035408;28;20559;-72
2022/06/02 08:31:31;;;;;;;18.27;6.13;;;;;;;17.08;54.11;102104.91;5033513;28;20038;-72
2022/06/02 08:34:14;;;;;;;10.60;6.85;;;;;;;17.33;53.31;102116.44;5032680;28;20049;-73
2022/06/02 08:36:57;;;;;;;15.85;7.13;;;;;;;17.41;52.84;102117.00;5033549;28;20050;-72
2022/06/02 08:39:38;;;;;;;12.30;6.90;;;;;;;17.27;51.95;102120.19;5052692;28;20730;-72
2022/06/02 08:43:05;;;;;;;12.70;7.13;;;;;;;16.93;52.10;102118.78;5053314;28;20075;-72
2022/06/02 08:46:05;;;;;;;7.50;5.82;;;;;;;16.66;53.22;102120.66;5057463;28;20057;-73
2022/06/02 08:48:51;;;;;;;15.32;6.78;;;;;;;16.61;53.42;102118.16;5053130;28;20037;-73
2022/06/02 08:51:39;;;;;;;21.92;6.35;;;;;;;16.77;53.48;102116.69;5051254;28;20125;-74
2022/06/02 08:55:04;;;;;;;7.65;5.55;;;;;;;17.04;52.59;102111.28;5032541;28;20129;-73
2022/06/02 08:58:18;;;;;;;8.02;5.13;;;;;;;17.21;52.43;102112.47;5037506;28;20045;-73
2022/06/02 09:01:41;;;;;;;10.10;5.40;;;;;;;17.27;51.32;102120.19;5052943;28;20046;-73
2022/06/02 09:04:58;;;;;;;8.43;5.47;;;;;;;17.21;52.12;102113.31;5052460;28;20043;-73
2022/06/02 09:08:03;;;;;;;14.88;5.72;;;;;;;17.20;50.31;102110.72;5052867;28;20041;-72
2022/06/02 09:10:43;;;;;;;24.90;5.93;;;;;;;16.96;51.00;102124.03;5050491;28;20046;-73
2022/06/02 09:14:13;;;;;;;10.10;5.95;;;;;;;17.04;51.63;102116.59;5032565;28;20046;-72
2022/06/02 09:17:35;;;;;;;6.68;5.30;;;;;;;17.22;51.69;102109.72;5050116;28;20041;-73
2022/06/02 09:20:12;;;;;;;8.15;5.18;;;;;;;17.53;50.61;102116.53;5031824;28;20073;-73
2022/06/02 09:23:01;;;;;;;17.27;6.82;;;;;;;17.69;51.10;102116.78;5032684;28;20080;-72
2022/06/02 09:26:21;;;;;;;6.50;5.20;;;;;;;17.91;50.12;102117.69;5050899;28;20061;-73
2022/06/02 09:28:59;;;;;;;5.15;4.65;;;;;;;18.08;49.87;102112.59;5051898;28;20416;-74
2022/06/02 09:31:58;;;;;;;8.93;4.95;;;;;;;18.18;48.24;102109.53;5052310;28;20068;-75
2022/06/02 09:34:47;;;;;;;4.53;3.97;;;;;;;18.16;48.14;102123.81;5052112;28;20045;-73
2022/06/02 09:37:49;;;;;;;5.20;4.50;;;;;;;17.94;49.34;102118.47;5051432;28;20045;-74
2022/06/02 09:40:56;;;;;;;12.60;5.05;;;;;;;17.65;49.89;102112.50;5041206;28;20121;-74
2022/06/02 09:44:03;;;;;;;8.13;5.22;;;;;;;17.49;50.57;102119.38;5036462;28;20052;-73
2022/06/02 09:47:26;;;;;;;10.93;4.47;;;;;;;17.42;50.63;102117.88;5046279;28;20089;-73
2022/06/02 09:50:22;;;;;;;15.45;4.78;;;;;;;17.33;50.40;102114.66;5034059;28;20651;-73
2022/06/02 09:53:11;;;;;;;6.90;4.82;;;;;;;17.39;50.63;102121.56;5043931;28;20130;-74
2022/06/02 09:56:25;;;;;;;14.90;5.22;;;;;;;17.60;50.53;102127.81;5036802;28;20046;-72
2022/06/02 09:59:34;;;;;;;10.98;5.05;;;;;;;17.52;50.82;102120.13;5031890;28;20558;-71
2022/06/02 10:02:34;;;;;;;5.20;4.70;;;;;;;17.37;50.56;102118.06;5035265;28;20045;-69
2022/06/02 10:06:08;;;;;;;6.30;4.10;;;;;;;17.35;50.61;102118.09;5048157;28;20487;-70
2022/06/02 10:08:44;;;;;;;6.57;2.80;;;;;;;17.71;49.47;102108.72;5049589;28;20145;-74
2022/06/02 10:11:55;;;;;;;2.60;2.35;;;;;;;18.16;45.30;102110.47;5044222;28;20112;-71
2022/06/02 10:15:00;;;;;;;4.25;2.47;;;;;;;18.47;46.27;102103.81;5031413;28;20092;-70
2022/06/02 10:18:00;;;;;;;;;;;;;;;18.72;44.25;102099.19;5037903;28;20061;-70
2022/06/02 10:20:50;;;;;;;3.65;2.22;;;;;;;19.00;43.86;102092.59;5062319;28;19925;-69
2022/06/02 10:24:00;;;;;;;7.70;2.83;;;;;;;19.24;43.89;102095.94;5051500;28;20037;-71
2022/06/02 10:27:12;;;;;;;3.22;1.85;;;;;;;19.45;42.59;102104.75;5031385;28;20046;-70
2022/06/02 10:29:46;;;;;;;2.25;1.80;;;;;;;19.18;42.54;102105.09;5030986;28;20042;-69
2022/06/02 10:32:27;;;;;;;5.75;2.55;;;;;;;19.19;44.33;102103.31;5037089;28;20046;-69
2022/06/02 10:35:43;;;;;;;3.60;3.20;;;;;;;19.54;43.44;102098.06;5032534;28;20100;-71
2022/06/02 10:38:51;;;;;;;5.70;3.28;;;;;;;19.60;43.65;102097.81;5031679;28;20046;-71
2022/06/02 10:41:38;;;;;;;27.83;4.50;;;;;;;19.44;43.66;102103.03;5036283;28;20119;-71
2022/06/02 10:44:25;;;;;;;3.10;2.80;;;;;;;19.27;44.11;102102.97;5048039;28;20478;-70
2022/06/02 10:47:34;;;;;;;10.75;3.08;;;;;;;19.13;44.44;102107.13;5039967;28;20064;-69
2022/06/02 10:50:25;;;;;;;3.90;2.95;;;;;;;19.02;44.70;102101.41;5049215;28;20412;-70
2022/06/02 10:53:27;;;;;;;13.13;3.53;;;;;;;18.91;44.59;102091.22;5035026;28;20045;-70
2022/06/02 10:56:25;;;;;;;19.08;4.07;;;;;;;18.85;44.85;102092.34;5054230;28;20069;-70
2022/06/02 10:59:56;;;;;;;7.03;3.10;;;;;;;18.83;44.78;102085.31;5055097;28;20129;-71
2022/06/02 11:03:00;;;;;;;7.95;3.00;;;;;;;18.84;45.14;102087.06;5060242;28;20077;-70
2022/06/02 11:06:21;;;;;;;9.80;3.47;;;;;;;18.79;44.40;102081.94;5048564;28;20042;-70
2022/06/02 11:09:42;;;;;;;3.80;2.88;;;;;;;18.75;45.63;102083.03;5033972;28;20101;-70
2022/06/02 11:12:28;;;;;;;4.45;2.63;;;;;;;18.80;45.99;102081.00;5036027;28;20054;-69
2022/06/02 11:15:16;;;;;;;3.50;2.88;;;;;;;18.90;45.53;102076.09;5034213;28;20038;-70
2022/06/02 11:18:13;;;;;;;28.75;4.93;;;;;;;19.02;45.09;102072.03;5041431;28;20104;-70
2022/06/02 11:21:31;;;;;;;12.98;3.63;;;;;;;19.05;44.86;102067.41;5048780;28;20053;-70
2022/06/02 11:24:20;;;;;;;4.75;3.53;;;;;;;19.05;43.81;102064.72;5042220;28;20104;-70
2022/06/02 11:27:20;;;;;;;3.97;3.58;;;;;;;19.15;44.66;102069.63;5044687;28;20038;-71
2022/06/02 11:29:57;;;;;;;5.07;3.85;;;;;;;19.40;44.45;102062.19;5052204;28;20919;-67
2022/06/02 11:32:49;;;;;;;11.18;3.58;;;;;;;20.00;42.57;102060.19;5053291;28;20504;-71
2022/06/02 11:36:02;;;;;;;5.30;3.25;;;;;;;20.48;42.06;102057.72;5053301;28;20053;-71
2022/06/02 11:38:51;;;;;;;3.88;3.03;;;;;;;20.87;39.98;102048.50;5053295;28;20056;-71
2022/06/02 11:42:07;;;;;;;4.78;3.47;;;;;;;20.99;40.16;102051.44;5053679;28;20042;-70
2022/06/02 11:44:52;;;;;;;3.40;2.92;;;;;;;20.78;39.30;102049.00;5033503;28;20052;-71
2022/06/02 11:47:45;;;;;;;23.98;4.25;;;;;;;20.31;40.13;102054.13;5033297;28;20034;-70
2022/06/02 11:50:34;;;;;;;4.22;3.20;;;;;;;19.91;40.78;102053.50;5041787;28;20499;-72
2022/06/02 11:53:28;;;;;;;4.07;3.45;;;;;;;19.59;42.09;102049.72;5037065;28;20042;-71
2022/06/02 11:56:08;;;;;;;5.30;3.28;;;;;;;19.36;41.96;102047.22;5046746;28;20049;-71
2022/06/02 11:59:08;;;;;;;4.05;2.63;;;;;;;19.21;42.57;102047.97;5041367;28;20057;-71
2022/06/02 12:01:57;;;;;;;5.32;2.70;;;;;;;19.24;42.50;102048.69;5043176;28;20104;-72
2022/06/02 12:05:15;;;;;;;8.80;2.95;;;;;;;19.38;43.53;102041.84;5053352;28;20052;-72
2022/06/02 12:08:03;;;;;;;23.90;4.65;;;;;;;20.04;42.55;102052.88;5039416;28;20057;-72
2022/06/02 12:11:02;;;;;;;4.65;2.40;;;;;;;20.83;41.02;102041.59;5033305;28;20034;-71
2022/06/02 12:13:37;;;;;;;3.22;2.50;;;;;;;21.45;38.27;102039.94;5047163;28;20196;-71
2022/06/02 12:16:08;;;;;;;4.13;3.00;;;;;;;21.76;36.41;102043.56;5046605;28;20373;-71
2022/06/02 12:19:00;;;;;;;5.18;2.80;;;;;;;21.83;37.60;102029.69;5033037;28;20042;-72
2022/06/02 12:21:47;;;;;;;3.13;2.67;;;;;;;22.06;35.34;102022.09;5048363;28;20045;-70
2022/06/02 12:25:07;;;;;;;3.45;2.60;;;;;;;22.14;36.04;102024.28;5039477;28;20048;-71
2022/06/02 12:28:06;;;;;;;2.97;2.28;;;;;;;22.29;36.03;102023.38;5043131;28;20490;-72
2022/06/02 12:31:17;;;;;;;3.95;2.55;;;;;;;22.42;34.59;102030.69;5041829;28;20112;-72
2022/06/02 12:33:48;;;;;;;3.17;2.30;;;;;;;22.25;35.15;102024.50;5050758;28;20042;-72
2022/06/02 12:36:43;;;;;;;6.43;2.30;;;;;;;22.26;34.83;102017.31;5058319;28;20041;-70
2022/06/02 12:39:26;;;;;;;8.45;2.25;;;;;;;22.46;35.31;102022.34;5050148;28;20050;-70
2022/06/02 12:42:25;;;;;;;3.53;2.08;;;;;;;22.49;34.40;102018.59;5039389;28;20494;-71
2022/06/02 12:45:15;;;;;;;9.80;2.70;;;;;;;22.54;36.55;102021.00;5042279;28;20042;-73
2022/06/02 12:48:01;;;;;;;2.33;1.73;;;;;;;22.58;34.57;102011.81;5045159;28;20181;-72
2022/06/02 12:50:54;;;;;;;2.13;1.70;;;;;;;22.33;35.50;102016.81;5041594;28;20120;-74
2022/06/02 12:54:04;;;;;;;3.67;2.00;;;;;;;22.08;35.51;102012.09;5043012;28;20041;-71
2022/06/02 12:57:24;;;;;;;4.25;2.05;;;;;;;22.13;34.10;102010.00;5043752;28;20044;-71
2022/06/02 13:00:43;;;;;;;21.80;3.45;;;;;;;22.22;35.51;102013.97;5045752;28;20815;-71
2022/06/02 13:03:49;;;;;;;6.35;2.88;;;;;;;22.35;34.50;102003.31;5044470;28;20071;-72
2022/06/02 13:07:01;;;;;;;26.38;3.88;;;;;;;22.47;35.04;101999.03;5040336;28;20045;-73
2022/06/02 13:10:05;;;;;;;2.83;2.00;;;;;;;22.60;33.63;101999.13;5047419;28;20047;-73
2022/06/02 13:13:13;;;;;;;2.83;1.83;;;;;;;22.49;33.64;101994.44;5045754;28;20487;-71
2022/06/02 13:16:18;;;;;;;8.02;2.25;;;;;;;22.39;33.08;101990.56;5047103;28;20045;-72
2022/06/02 13:19:19;;;;;;;6.43;2.78;;;;;;;22.29;33.42;101979.50;5046645;28;20057;-71
2022/06/02 13:22:35;;;;;;;2.90;2.13;;;;;;;22.38;34.19;101978.97;5042061;28;20075;-71
2022/06/02 13:26:06;;;;;;;5.22;2.00;;;;;;;22.58;32.05;101983.09;5044514;28;20049;-72
2022/06/02 13:29:12;;;;;;;5.30;2.40;;;;;;;22.32;34.39;101976.66;5041967;28;20120;-70
2022/06/02 13:32:09;;;;;;;3.33;1.90;;;;;;;22.48;35.57;101981.94;5056412;28;20060;-72
2022/06/02 13:35:14;;;;;;;3.40;1.92;;;;;;;22.75;35.03;101992.78;5036495;28;20041;-70